createdAt,value
2023-05-19T00:01:16.958Z,16.98
2023-05-19T00:04:20.187Z,17.98
2023-05-19T00:07:30.613Z,17.20
2023-05-19T00:10:33.918Z,17.77
2023-05-19T00:13:37.256Z,17.80
2023-05-19T00:16:40.363Z,18.67
2023-05-19T00:19:45.317Z,18.73
2023-05-19T00:22:48.884Z,20.27
2023-05-19T00:25:52.455Z,22.00
2023-05-19T00:28:55.425Z,17.98
2023-05-19T00:31:58.282Z,21.73
2023-05-19T00:35:01.643Z,21.35
2023-05-19T00:38:04.463Z,21.92
2023-05-19T00:41:07.512Z,21.57
2023-05-19T00:44:10.336Z,22.85
2023-05-19T00:47:13.758Z,24.75
2023-05-19T00:50:16.679Z,26.83
2023-05-19T00:53:19.722Z,25.38
2023-05-19T00:56:23.237Z,24.27
2023-05-19T00:59:26.368Z,22.08
2023-05-19T01:02:29.959Z,19.65
2023-05-19T01:05:33.434Z,22.85
2023-05-19T01:08:39.022Z,24.38
2023-05-19T01:11:41.792Z,22.60
2023-05-19T01:14:45.261Z,20.13
2023-05-19T01:18:01.964Z,24.83
2023-05-19T01:21:17.234Z,21.83
2023-05-19T01:24:24.947Z,22.15
2023-05-19T01:27:56.188Z,21.53
2023-05-19T01:31:00.469Z,21.77
2023-05-19T01:34:04.961Z,22.67
2023-05-19T01:37:09.024Z,22.63
2023-05-19T01:40:12.321Z,19.98
2023-05-19T01:43:24.350Z,22.70
2023-05-19T01:46:27.215Z,25.15
2023-05-19T01:49:30.139Z,21.67
2023-05-19T01:52:33.924Z,22.98
2023-05-19T01:55:49.841Z,21.50
2023-05-19T01:59:03.610Z,21.13
2023-05-19T02:02:26.896Z,21.48
2023-05-19T02:06:12.495Z,21.08
2023-05-19T02:09:27.401Z,23.48
2023-05-19T02:12:36.296Z,21.73
2023-05-19T02:15:44.955Z,24.93
2023-05-19T02:18:48.463Z,29.27
2023-05-19T02:21:52.365Z,22.70
2023-05-19T02:24:57.918Z,28.83
2023-05-19T02:28:01.127Z,22.55
2023-05-19T02:31:08.916Z,27.53
2023-05-19T02:34:11.801Z,32.08
2023-05-19T02:37:15.506Z,27.27
2023-05-19T02:40:19.816Z,29.60
2023-05-19T02:43:22.681Z,34.65
2023-05-19T02:46:25.677Z,30.03
2023-05-19T02:49:31.110Z,30.83
2023-05-19T02:52:34.054Z,33.03
2023-05-19T02:55:37.511Z,31.67
2023-05-19T02:58:43.312Z,35.80
2023-05-19T03:01:47.794Z,30.23
2023-05-19T03:04:51.157Z,27.45
2023-05-19T03:07:53.962Z,27.67
2023-05-19T03:10:57.376Z,29.98
2023-05-19T03:14:00.157Z,29.10
2023-05-19T03:17:04.541Z,29.30
2023-05-19T03:20:08.223Z,26.30
2023-05-19T03:23:13.095Z,28.40
2023-05-19T03:26:15.993Z,32.15
2023-05-19T03:29:19.123Z,29.05
2023-05-19T03:32:23.379Z,28.97
2023-05-19T03:35:26.253Z,27.58
2023-05-19T03:38:29.178Z,29.33
2023-05-19T03:41:34.196Z,26.88
2023-05-19T03:44:38.304Z,26.35
2023-05-19T03:47:41.487Z,30.07
2023-05-19T03:51:04.524Z,27.20
2023-05-19T03:54:07.538Z,25.38
2023-05-19T03:57:11.394Z,24.88
2023-05-19T04:00:14.967Z,25.83
2023-05-19T04:03:19.112Z,26.10
2023-05-19T04:06:22.249Z,25.55
2023-05-19T04:09:26.580Z,28.05
2023-05-19T04:12:30.942Z,26.23
2023-05-19T04:15:34.104Z,23.35
2023-05-19T04:18:36.938Z,23.43
2023-05-19T04:21:40.640Z,25.95
2023-05-19T04:24:43.486Z,27.05
2023-05-19T04:27:48.362Z,24.42
2023-05-19T04:30:52.778Z,24.25
2023-05-19T04:33:55.714Z,29.30
2023-05-19T04:36:59.327Z,24.90
2023-05-19T04:40:02.470Z,25.80
2023-05-19T04:43:07.490Z,27.08
2023-05-19T04:46:13.739Z,30.33
2023-05-19T04:49:19.382Z,29.13
2023-05-19T04:52:22.350Z,26.27
2023-05-19T04:55:26.548Z,30.90
2023-05-19T04:58:30.309Z,27.75
2023-05-19T05:01:34.013Z,31.25
2023-05-19T05:04:42.593Z,32.07
2023-05-19T05:07:46.124Z,25.27
2023-05-19T05:10:53.061Z,26.15
2023-05-19T05:13:58.459Z,26.00
2023-05-19T05:17:04.503Z,29.33
2023-05-19T05:20:08.454Z,28.53
2023-05-19T05:23:15.401Z,26.15
2023-05-19T05:26:24.134Z,24.92
2023-05-19T05:29:32.526Z,25.95
2023-05-19T05:32:36.700Z,20.75
2023-05-19T05:35:44.608Z,20.57
2023-05-19T05:38:50.401Z,18.40
2023-05-19T05:41:54.110Z,21.15
2023-05-19T05:44:57.222Z,17.00
2023-05-19T05:48:00.684Z,16.95
2023-05-19T05:51:07.404Z,14.43
2023-05-19T05:54:15.267Z,14.25
2023-05-19T05:57:21.911Z,12.70
2023-05-19T06:00:28.130Z,13.05
2023-05-19T06:04:39.302Z,12.75
2023-05-19T06:07:54.122Z,12.37
2023-05-19T06:11:01.264Z,14.68
2023-05-19T06:14:06.121Z,13.00
2023-05-19T06:17:44.492Z,13.15
2023-05-19T06:20:48.942Z,16.30
2023-05-19T06:23:52.637Z,13.30
2023-05-19T06:31:39.610Z,11.50
2023-05-19T06:34:57.470Z,11.05
2023-05-19T06:38:02.784Z,10.32
2023-05-19T06:41:09.198Z,9.73
2023-05-19T06:44:12.293Z,31.15
2023-05-19T06:47:15.836Z,9.00
2023-05-19T06:50:20.723Z,12.10
2023-05-19T06:53:25.348Z,15.48
2023-05-19T06:56:29.484Z,9.10
2023-05-19T07:03:12.378Z,10.63
2023-05-19T07:06:17.074Z,8.88
2023-05-19T07:09:22.264Z,10.43
2023-05-19T07:12:26.870Z,7.33
2023-05-19T07:15:30.036Z,7.28
2023-05-19T07:18:32.939Z,7.53
2023-05-19T07:21:36.450Z,8.77
2023-05-19T07:24:39.426Z,8.57
2023-05-19T07:27:42.312Z,7.50
2023-05-19T07:30:46.893Z,6.13
2023-05-19T07:33:54.285Z,6.95
2023-05-19T07:36:57.756Z,7.30
2023-05-19T07:40:00.665Z,8.98
2023-05-19T07:43:03.570Z,5.43
2023-05-19T07:46:07.424Z,5.80
2023-05-19T07:49:10.293Z,8.00
2023-05-19T07:52:13.150Z,6.63
2023-05-19T07:55:19.588Z,10.52
2023-05-19T07:58:22.662Z,7.80
2023-05-19T08:01:26.381Z,6.22
2023-05-19T08:04:29.288Z,8.73
2023-05-19T08:07:39.403Z,8.40
2023-05-19T08:10:42.448Z,5.97
2023-05-19T08:13:47.899Z,6.70
2023-05-19T08:16:51.017Z,5.93
2023-05-19T08:20:02.238Z,5.68
2023-05-19T08:23:11.302Z,6.53
2023-05-19T08:26:14.162Z,10.85
2023-05-19T08:29:17.026Z,3.90
2023-05-19T08:32:19.969Z,3.35
2023-05-19T08:35:22.905Z,6.68
2023-05-19T08:38:26.649Z,5.38
2023-05-19T08:41:29.571Z,12.00
2023-05-19T08:44:32.476Z,5.07
2023-05-19T08:47:36.221Z,5.25
2023-05-19T08:50:42.196Z,6.05
2023-05-19T08:53:50.672Z,3.70
2023-05-19T08:56:55.305Z,4.30
2023-05-19T09:00:00.682Z,5.93
2023-05-19T09:06:15.594Z,3.35
2023-05-19T09:09:20.316Z,3.20
2023-05-19T09:12:25.349Z,4.57
2023-05-19T09:15:39.374Z,5.77
2023-05-19T09:18:56.677Z,8.00
2023-05-19T09:22:05.420Z,6.55
2023-05-19T09:25:22.813Z,2.83
2023-05-19T09:28:29.747Z,3.38
2023-05-19T09:31:36.179Z,3.80
2023-05-19T09:34:43.058Z,4.70
2023-05-19T09:37:46.748Z,5.28
2023-05-19T09:41:02.678Z,4.00
2023-05-19T09:44:07.534Z,4.82
2023-05-19T09:47:14.301Z,4.40
2023-05-19T09:50:17.213Z,3.75
2023-05-19T09:53:22.046Z,3.55
2023-05-19T09:56:25.704Z,10.60
2023-05-19T09:59:38.045Z,2.95
2023-05-19T10:02:45.787Z,4.60
2023-05-19T10:05:49.931Z,3.25
2023-05-19T10:09:26.437Z,4.53
2023-05-19T10:12:31.431Z,3.83
2023-05-19T10:15:57.204Z,4.80
2023-05-19T10:19:03.074Z,3.70
2023-05-19T10:22:10.277Z,4.85
2023-05-19T10:25:18.713Z,3.22
2023-05-19T10:28:26.802Z,4.97
2023-05-19T10:31:32.017Z,4.50
2023-05-19T10:34:50.597Z,2.30
2023-05-19T10:38:17.833Z,6.75
2023-05-19T10:41:31.861Z,4.22
2023-05-19T10:44:47.556Z,6.13
2023-05-19T10:47:51.811Z,3.03
2023-05-19T10:50:56.449Z,4.17
2023-05-19T10:54:03.086Z,3.15
2023-05-19T10:57:07.192Z,5.03
2023-05-19T11:00:28.601Z,4.50
2023-05-19T11:03:44.777Z,3.53
2023-05-19T11:06:51.897Z,3.20
2023-05-19T11:12:01.673Z,2.88
2023-05-19T11:18:38.848Z,4.68
2023-05-19T11:21:52.911Z,3.55
2023-05-19T11:24:56.089Z,5.80
2023-05-19T11:27:59.423Z,6.80
2023-05-19T11:31:03.810Z,5.28
2023-05-19T11:34:10.453Z,6.20
2023-05-19T11:37:13.213Z,12.65
2023-05-19T11:40:16.141Z,4.43
2023-05-19T11:43:19.048Z,3.42
2023-05-19T11:46:22.382Z,7.97
2023-05-19T11:49:29.774Z,5.45
2023-05-19T11:52:32.678Z,5.80
2023-05-19T11:55:35.478Z,6.93
2023-05-19T11:58:38.365Z,6.03
2023-05-19T12:01:41.148Z,5.13
2023-05-19T12:04:44.265Z,2.88
2023-05-19T12:07:49.744Z,8.82
2023-05-19T12:10:52.718Z,4.57
2023-05-19T12:14:01.796Z,5.78
2023-05-19T12:17:16.106Z,4.10
2023-05-19T12:20:21.051Z,3.33
2023-05-19T12:23:24.966Z,2.95
2023-05-19T12:26:27.892Z,4.47
2023-05-19T12:29:31.991Z,5.70
2023-05-19T12:32:37.938Z,2.50
2023-05-19T12:35:42.676Z,5.78
2023-05-19T12:38:47.850Z,6.25
2023-05-19T12:41:50.887Z,3.20
2023-05-19T12:44:54.861Z,4.28
2023-05-19T12:47:57.891Z,6.70
2023-05-19T12:51:00.726Z,7.00
2023-05-19T12:54:06.835Z,6.32
2023-05-19T12:57:12.785Z,5.33
2023-05-19T13:00:36.839Z,3.42
2023-05-19T13:05:00.162Z,5.90
2023-05-19T13:08:27.980Z,5.55
2023-05-19T13:11:30.897Z,4.32
2023-05-19T13:14:33.667Z,4.77
2023-05-19T13:17:37.025Z,6.57
2023-05-19T13:20:42.112Z,7.47
2023-05-19T13:23:47.837Z,3.45
2023-05-19T13:26:50.722Z,4.68
2023-05-19T13:29:53.512Z,5.17
2023-05-19T13:32:56.427Z,5.03
2023-05-19T13:36:02.560Z,4.22
2023-05-19T13:39:05.451Z,4.20
2023-05-19T13:46:15.865Z,4.63
2023-05-19T13:49:18.807Z,3.53
2023-05-19T13:52:23.876Z,3.53
2023-05-19T13:55:27.597Z,3.72
2023-05-19T13:58:32.987Z,6.72
2023-05-19T14:01:35.911Z,4.63
2023-05-19T14:04:39.605Z,7.07
2023-05-19T14:07:42.768Z,3.72
2023-05-19T14:10:48.863Z,6.07
2023-05-19T14:13:53.049Z,5.55
2023-05-19T14:16:56.245Z,7.03
2023-05-19T14:20:00.738Z,4.18
2023-05-19T14:23:03.618Z,4.43
2023-05-19T14:26:06.456Z,6.93
2023-05-19T14:29:09.255Z,4.13
2023-05-19T14:32:12.087Z,3.77
2023-05-19T14:35:14.843Z,7.32
2023-05-19T14:38:17.738Z,5.47
2023-05-19T14:41:21.615Z,7.13
2023-05-19T14:44:24.383Z,3.45
2023-05-19T14:47:27.477Z,5.43
2023-05-19T14:50:30.761Z,6.95
2023-05-19T14:53:33.752Z,3.25
2023-05-19T14:56:36.509Z,5.65
2023-05-19T14:59:39.598Z,5.57
2023-05-19T15:02:42.652Z,9.60
2023-05-19T15:05:45.990Z,3.55
2023-05-19T15:08:49.175Z,4.40
2023-05-19T15:11:51.962Z,6.13
2023-05-19T15:14:54.756Z,5.57
2023-05-19T15:17:57.671Z,8.27
2023-05-19T15:21:00.504Z,8.02
2023-05-19T15:24:03.325Z,7.93
2023-05-19T15:27:06.307Z,4.47
2023-05-19T15:30:09.335Z,4.38
2023-05-19T15:33:13.092Z,5.43
2023-05-19T15:36:16.808Z,5.30
2023-05-19T15:39:19.826Z,3.92
2023-05-19T15:42:22.680Z,6.25
2023-05-19T15:45:25.492Z,5.13
2023-05-19T15:48:29.176Z,6.33
2023-05-19T15:51:32.096Z,3.58
2023-05-19T15:54:34.975Z,5.80
2023-05-19T15:57:37.880Z,4.68
2023-05-19T16:00:40.738Z,5.72
2023-05-19T16:03:44.096Z,6.20
2023-05-19T16:06:47.158Z,8.25
2023-05-19T16:09:50.261Z,6.63
2023-05-19T16:12:53.047Z,7.57
2023-05-19T16:15:56.186Z,5.85
2023-05-19T16:18:59.235Z,5.93
2023-05-19T16:22:02.094Z,7.00
2023-05-19T16:25:05.526Z,10.02
2023-05-19T16:28:08.401Z,8.25
2023-05-19T16:31:11.372Z,5.55
2023-05-19T16:34:17.023Z,5.27
2023-05-19T16:37:19.814Z,7.45
2023-05-19T16:40:22.623Z,10.77
2023-05-19T16:43:26.443Z,6.15
2023-05-19T16:46:31.160Z,7.43
2023-05-19T16:49:34.441Z,9.07
2023-05-19T16:52:37.285Z,4.25
2023-05-19T16:55:40.130Z,4.15
2023-05-19T16:58:42.881Z,6.70
2023-05-19T17:01:45.955Z,5.43
2023-05-19T17:04:48.779Z,4.30
2023-05-19T17:07:51.811Z,8.27
2023-05-19T17:10:54.699Z,7.10
2023-05-19T17:13:57.684Z,9.02
2023-05-19T17:17:00.717Z,7.72
2023-05-19T17:20:04.357Z,5.23
2023-05-19T17:23:08.424Z,8.05
2023-05-19T17:26:11.185Z,8.85
2023-05-19T17:29:14.046Z,10.27
2023-05-19T17:32:17.464Z,9.32
2023-05-19T17:35:20.364Z,7.03
2023-05-19T17:38:23.243Z,6.13
2023-05-19T17:41:26.404Z,8.48
2023-05-19T17:44:29.189Z,9.70
2023-05-19T17:47:32.102Z,6.85
2023-05-19T17:50:35.156Z,9.40
2023-05-19T17:53:38.688Z,8.98
2023-05-19T17:56:44.565Z,6.20
2023-05-19T17:59:47.624Z,10.40
2023-05-19T18:02:51.065Z,11.75
2023-05-19T18:05:54.073Z,11.00
2023-05-19T18:08:59.374Z,12.30
2023-05-19T18:12:02.515Z,9.80
2023-05-19T18:15:06.297Z,10.38
2023-05-19T18:18:10.762Z,10.63
2023-05-19T18:21:17.995Z,8.27
2023-05-19T18:24:20.807Z,7.72
2023-05-19T18:27:23.626Z,10.20
2023-05-19T18:30:26.490Z,8.20
2023-05-19T18:33:31.058Z,8.05
2023-05-19T18:36:35.879Z,12.57
2023-05-19T18:39:38.706Z,10.68
2023-05-19T18:42:41.625Z,11.82
2023-05-19T18:45:48.154Z,9.35
2023-05-19T18:48:51.046Z,8.95
2023-05-19T18:51:54.192Z,10.77
2023-05-19T18:54:57.075Z,9.05
2023-05-19T18:57:59.988Z,8.70
2023-05-19T19:01:02.937Z,10.20
2023-05-19T19:04:05.829Z,9.25
2023-05-19T19:07:08.633Z,8.33
2023-05-19T19:10:11.894Z,10.68
2023-05-19T19:13:14.661Z,9.27
2023-05-19T19:16:17.548Z,9.98
2023-05-19T19:19:20.856Z,11.82
2023-05-19T19:22:23.684Z,12.57
2023-05-19T19:25:26.408Z,11.18
2023-05-19T19:28:29.364Z,13.00
2023-05-19T19:31:33.501Z,11.68
2023-05-19T19:34:36.453Z,9.82
2023-05-19T19:37:39.203Z,12.00
2023-05-19T19:40:42.094Z,14.45
2023-05-19T19:43:44.840Z,9.77
2023-05-19T19:46:49.197Z,13.23
2023-05-19T19:49:52.106Z,15.52
2023-05-19T19:52:54.902Z,13.57
2023-05-19T19:55:58.338Z,10.82
2023-05-19T19:59:01.679Z,11.15
2023-05-19T20:02:48.348Z,11.38
2023-05-19T20:06:26.190Z,13.20
2023-05-19T20:09:30.920Z,11.47
2023-05-19T20:12:34.792Z,11.68
2023-05-19T20:15:41.669Z,11.50
2023-05-19T20:18:44.680Z,11.65
2023-05-19T20:21:47.762Z,11.73
2023-05-19T20:24:50.640Z,11.33
2023-05-19T20:27:53.374Z,15.30
2023-05-19T20:30:56.306Z,15.63
2023-05-19T20:34:00.777Z,12.43
2023-05-19T20:37:04.472Z,13.32
2023-05-19T20:40:08.517Z,16.47
2023-05-19T20:43:11.438Z,17.70
2023-05-19T20:46:14.402Z,23.38
2023-05-19T20:49:17.788Z,17.02
2023-05-19T20:52:20.656Z,14.98
2023-05-19T20:55:23.489Z,21.80
2023-05-19T20:58:30.288Z,14.02
2023-05-19T21:01:33.278Z,12.35
2023-05-19T21:04:37.427Z,16.08
2023-05-19T21:07:40.251Z,10.20
2023-05-19T21:10:43.139Z,11.90
2023-05-19T21:13:45.897Z,14.35
2023-05-19T21:16:49.779Z,17.73
2023-05-19T21:19:58.299Z,14.63
2023-05-19T21:23:01.158Z,13.35
2023-05-19T21:26:06.680Z,14.83
2023-05-19T21:29:09.998Z,18.15
2023-05-19T21:32:12.887Z,15.48
2023-05-19T21:35:16.047Z,14.73
2023-05-19T21:38:23.882Z,17.30
2023-05-19T21:41:27.205Z,16.03
2023-05-19T21:44:31.863Z,15.07
2023-05-19T21:47:34.739Z,17.10
2023-05-19T21:50:38.501Z,14.13
2023-05-19T21:53:41.396Z,16.38
2023-05-19T21:56:44.172Z,15.10
2023-05-19T21:59:47.124Z,16.48
2023-05-19T22:02:49.938Z,16.80
2023-05-19T22:05:55.335Z,17.42
2023-05-19T22:09:01.368Z,19.65
2023-05-19T22:12:04.540Z,18.60
2023-05-19T22:15:07.892Z,20.88
2023-05-19T22:18:11.899Z,17.48
2023-05-19T22:21:14.804Z,18.98
2023-05-19T22:24:18.686Z,18.33
2023-05-19T22:27:21.626Z,18.83
2023-05-19T22:30:24.498Z,18.00
2023-05-19T22:33:27.493Z,15.80
2023-05-19T22:36:31.380Z,17.98
2023-05-19T22:39:34.318Z,16.83
2023-05-19T22:42:37.233Z,17.73
2023-05-19T22:45:40.057Z,16.85
2023-05-19T22:48:42.829Z,15.35
2023-05-19T22:51:45.687Z,17.20
2023-05-19T22:54:48.468Z,16.55
2023-05-19T22:57:51.364Z,15.83
2023-05-19T23:00:54.089Z,18.35
2023-05-19T23:03:56.916Z,15.55
2023-05-19T23:07:00.203Z,20.55
2023-05-19T23:10:04.488Z,17.63
2023-05-19T23:13:08.466Z,17.70
2023-05-19T23:16:11.526Z,16.15
2023-05-19T23:19:14.510Z,17.92
2023-05-19T23:22:17.457Z,18.42
2023-05-19T23:25:20.291Z,19.83
2023-05-19T23:28:23.025Z,20.33
2023-05-19T23:31:25.984Z,15.68
2023-05-19T23:34:29.110Z,19.73
2023-05-19T23:37:31.926Z,22.83
2023-05-19T23:40:34.772Z,23.73
2023-05-19T23:43:38.003Z,29.33
2023-05-19T23:46:41.275Z,19.33
2023-05-19T23:49:44.226Z,21.77
2023-05-19T23:52:48.628Z,28.98
2023-05-19T23:55:51.755Z,23.70
2023-05-19T23:58:54.557Z,26.67
